sensor_id;sensor_type;location;lat;lon;timestamp;P1;durP1;ratioP1;P2;durP2;ratioP2
13368;SDS011;6753;52.520;13.450;2023-04-24T00:00:01;1020.50;;;883.88;;
13368;SDS011;6753;52.520;13.450;2023-04-24T00:00:13;1016.20;;;881.97;;
13368;SDS011;6753;52.520;13.450;2023-04-24T00:00:25;1014.08;;;881.13;;
13368;SDS011;6753;52.520;13.450;2023-04-24T00:00:35;1015.60;;;881.35;;
13368;SDS011;6753;52.520;13.450;2023-04-24T00:00:48;1015.17;;;881.88;;
13368;SDS011;6753;52.520;13.450;2023-04-24T00:00:58;1019.65;;;883.15;;
13368;SDS011;6753;52.520;13.450;2023-04-24T00:01:11;1020.83;;;884.42;;
13368;SDS011;6753;52.520;13.450;2023-04-24T00:01:23;1020.65;;;884.33;;
13368;SDS011;6753;52.520;13.450;2023-04-24T00:01:33;1021.47;;;883.60;;
13368;SDS011;6753;52.520;13.450;2023-04-24T00:01:46;1024.38;;;882.38;;
13368;SDS011;6753;52.520;13.450;2023-04-24T00:01:57;1024.87;;;881.10;;
13368;SDS011;6753;52.520;13.450;2023-04-24T00:02:08;1023.45;;;880.90;;
13368;SDS011;6753;52.520;13.450;2023-04-24T00:02:20;1024.57;;;880.55;;
13368;SDS011;6753;52.520;13.450;2023-04-24T00:02:33;1022.00;;;881.05;;
13368;SDS011;6753;52.520;13.450;2023-04-24T00:02:44;1023.20;;;882.10;;
13368;SDS011;6753;52.520;13.450;2023-04-24T00:02:56;1019.60;;;882.55;;
13368;SDS011;6753;52.520;13.450;2023-04-24T00:03:07;1021.80;;;882.57;;
13368;SDS011;6753;52.520;13.450;2023-04-24T00:03:18;1022.85;;;882.80;;
13368;SDS011;6753;52.520;13.450;2023-04-24T00:03:31;1021.78;;;882.17;;
13368;SDS011;6753;52.520;13.450;2023-04-24T00:03:42;1017.38;;;882.30;;
13368;SDS011;6753;52.520;13.450;2023-04-24T00:03:53;1019.53;;;882.80;;
13368;SDS011;6753;52.520;13.450;2023-04-24T00:04:04;1018.78;;;883.15;;
13368;SDS011;6753;52.520;13.450;2023-04-24T00:04:16;1017.92;;;884.00;;
13368;SDS011;6753;52.520;13.450;2023-04-24T00:04:28;1018.42;;;884.13;;
13368;SDS011;6753;52.520;13.450;2023-04-24T00:04:39;1021.08;;;884.83;;
13368;SDS011;6753;52.520;13.450;2023-04-24T00:04:51;1020.28;;;884.33;;
13368;SDS011;6753;52.520;13.450;2023-04-24T00:05:01;1018.88;;;884.72;;
13368;SDS011;6753;52.520;13.450;2023-04-24T00:05:12;1018.53;;;883.80;;
13368;SDS011;6753;52.520;13.450;2023-04-24T00:05:24;1018.90;;;884.63;;
13368;SDS011;6753;52.520;13.450;2023-04-24T00:05:35;1018.85;;;884.45;;
13368;SDS011;6753;52.520;13.450;2023-04-24T00:05:45;1018.60;;;884.17;;
13368;SDS011;6753;52.520;13.450;2023-04-24T00:05:56;1018.17;;;883.35;;
13368;SDS011;6753;52.520;13.450;2023-04-24T00:06:08;1018.63;;;882.75;;
13368;SDS011;6753;52.520;13.450;2023-04-24T00:06:19;1017.03;;;883.88;;
13368;SDS011;6753;52.520;13.450;2023-04-24T00:06:30;1019.90;;;883.42;;
13368;SDS011;6753;52.520;13.450;2023-04-24T00:06:43;1017.70;;;884.03;;
13368;SDS011;6753;52.520;13.450;2023-04-24T00:06:54;1018.47;;;884.13;;
13368;SDS011;6753;52.520;13.450;2023-04-24T00:07:07;1019.17;;;885.60;;
13368;SDS011;6753;52.520;13.450;2023-04-24T00:07:17;1020.35;;;884.28;;
13368;SDS011;6753;52.520;13.450;2023-04-24T00:07:30;1018.33;;;885.25;;
13368;SDS011;6753;52.520;13.450;2023-04-24T00:07:42;1015.80;;;884.33;;
13368;SDS011;6753;52.520;13.450;2023-04-24T00:07:53;1016.15;;;882.38;;
13368;SDS011;6753;52.520;13.450;2023-04-24T00:08:04;1014.92;;;882.17;;
13368;SDS011;6753;52.520;13.450;2023-04-24T00:08:17;1010.05;;;880.80;;
13368;SDS011;6753;52.520;13.450;2023-04-24T00:08:28;1007.00;;;879.50;;
13368;SDS011;6753;52.520;13.450;2023-04-24T00:08:39;1007.00;;;878.97;;
13368;SDS011;6753;52.520;13.450;2023-04-24T00:08:50;1002.70;;;879.58;;
13368;SDS011;6753;52.520;13.450;2023-04-24T00:09:01;1001.67;;;878.87;;
13368;SDS011;6753;52.520;13.450;2023-04-24T00:09:13;1002.35;;;879.38;;
13368;SDS011;6753;52.520;13.450;2023-04-24T00:09:23;1007.20;;;880.35;;
13368;SDS011;6753;52.520;13.450;2023-04-24T00:09:34;1008.13;;;879.60;;
13368;SDS011;6753;52.520;13.450;2023-04-24T00:09:45;1009.70;;;878.58;;
13368;SDS011;6753;52.520;13.450;2023-04-24T00:09:56;1011.17;;;878.03;;
13368;SDS011;6753;52.520;13.450;2023-04-24T00:10:08;1007.95;;;876.35;;
13368;SDS011;6753;52.520;13.450;2023-04-24T00:10:19;1004.55;;;873.95;;
13368;SDS011;6753;52.520;13.450;2023-04-24T00:10:30;1004.17;;;874.58;;
13368;SDS011;6753;52.520;13.450;2023-04-24T00:10:42;1005.55;;;875.63;;
13368;SDS011;6753;52.520;13.450;2023-04-24T00:10:53;1001.70;;;875.13;;
13368;SDS011;6753;52.520;13.450;2023-04-24T00:11:03;1002.42;;;875.33;;
13368;SDS011;6753;52.520;13.450;2023-04-24T00:11:14;1003.75;;;877.28;;
13368;SDS011;6753;52.520;13.450;2023-04-24T00:11:25;1005.27;;;877.93;;
13368;SDS011;6753;52.520;13.450;2023-04-24T00:11:36;1006.33;;;877.85;;
13368;SDS011;6753;52.520;13.450;2023-04-24T00:11:47;1005.40;;;878.90;;
13368;SDS011;6753;52.520;13.450;2023-04-24T00:11:58;1005.42;;;879.88;;
13368;SDS011;6753;52.520;13.450;2023-04-24T00:12:10;1004.55;;;877.90;;
13368;SDS011;6753;52.520;13.450;2023-04-24T00:12:20;1000.22;;;877.03;;
13368;SDS011;6753;52.520;13.450;2023-04-24T00:12:31;995.55;;;876.15;;
13368;SDS011;6753;52.520;13.450;2023-04-24T00:12:42;995.30;;;875.00;;
13368;SDS011;6753;52.520;13.450;2023-04-24T00:12:53;995.80;;;875.33;;
13368;SDS011;6753;52.520;13.450;2023-04-24T00:13:04;999.35;;;876.47;;
13368;SDS011;6753;52.520;13.450;2023-04-24T00:13:14;1000.90;;;876.72;;
13368;SDS011;6753;52.520;13.450;2023-04-24T00:13:25;1002.30;;;876.13;;
13368;SDS011;6753;52.520;13.450;2023-04-24T00:13:38;1005.42;;;876.08;;
13368;SDS011;6753;52.520;13.450;2023-04-24T00:13:49;1003.17;;;875.10;;
13368;SDS011;6753;52.520;13.450;2023-04-24T00:14:00;1003.75;;;875.20;;
13368;SDS011;6753;52.520;13.450;2023-04-24T00:14:12;1002.38;;;875.13;;
13368;SDS011;6753;52.520;13.450;2023-04-24T00:14:23;1001.72;;;875.75;;
13368;SDS011;6753;52.520;13.450;2023-04-24T00:14:34;1001.80;;;876.05;;
13368;SDS011;6753;52.520;13.450;2023-04-24T00:14:45;1003.38;;;877.90;;
13368;SDS011;6753;52.520;13.450;2023-04-24T00:14:56;1001.03;;;878.75;;
13368;SDS011;6753;52.520;13.450;2023-04-24T00:15:07;1000.37;;;876.40;;
13368;SDS011;6753;52.520;13.450;2023-04-24T00:15:19;993.65;;;874.67;;
13368;SDS011;6753;52.520;13.450;2023-04-24T00:15:30;992.80;;;873.60;;
13368;SDS011;6753;52.520;13.450;2023-04-24T00:15:41;985.38;;;871.50;;
13368;SDS011;6753;52.520;13.450;2023-04-24T00:15:52;984.17;;;867.15;;
13368;SDS011;6753;52.520;13.450;2023-04-24T00:16:03;983.55;;;867.38;;
13368;SDS011;6753;52.520;13.450;2023-04-24T00:16:14;984.25;;;866.58;;
13368;SDS011;6753;52.520;13.450;2023-04-24T00:16:24;985.97;;;866.80;;
13368;SDS011;6753;52.520;13.450;2023-04-24T00:16:36;985.65;;;866.15;;
13368;SDS011;6753;52.520;13.450;2023-04-24T00:16:47;984.78;;;866.58;;
13368;SDS011;6753;52.520;13.450;2023-04-24T00:16:57;986.50;;;867.70;;
13368;SDS011;6753;52.520;13.450;2023-04-24T00:17:08;987.55;;;869.25;;
13368;SDS011;6753;52.520;13.450;2023-04-24T00:17:19;986.55;;;869.47;;
13368;SDS011;6753;52.520;13.450;2023-04-24T00:17:30;985.40;;;868.28;;
13368;SDS011;6753;52.520;13.450;2023-04-24T00:17:44;986.70;;;868.45;;
13368;SDS011;6753;52.520;13.450;2023-04-24T00:17:54;982.15;;;865.53;;
13368;SDS011;6753;52.520;13.450;2023-04-24T00:18:06;977.53;;;862.90;;
13368;SDS011;6753;52.520;13.450;2023-04-24T00:18:17;977.30;;;862.67;;
13368;SDS011;6753;52.520;13.450;2023-04-24T00:18:28;978.60;;;861.77;;
13368;SDS011;6753;52.520;13.450;2023-04-24T00:18:39;979.35;;;861.55;;
13368;SDS011;6753;52.520;13.450;2023-04-24T00:18:49;980.70;;;862.85;;
13368;SDS011;6753;52.520;13.450;2023-04-24T00:19:02;981.75;;;862.08;;
13368;SDS011;6753;52.520;13.450;2023-04-24T00:19:13;979.50;;;862.50;;
13368;SDS011;6753;52.520;13.450;2023-04-24T00:19:24;977.25;;;861.42;;
13368;SDS011;6753;52.520;13.450;2023-04-24T00:19:35;974.65;;;860.80;;
13368;SDS011;6753;52.520;13.450;2023-04-24T00:19:46;973.63;;;859.28;;
13368;SDS011;6753;52.520;13.450;2023-04-24T00:19:57;971.80;;;859.57;;
13368;SDS011;6753;52.520;13.450;2023-04-24T00:20:08;971.95;;;860.03;;
13368;SDS011;6753;52.520;13.450;2023-04-24T00:20:20;973.78;;;860.67;;
13368;SDS011;6753;52.520;13.450;2023-04-24T00:20:32;971.05;;;860.53;;
13368;SDS011;6753;52.520;13.450;2023-04-24T00:20:45;970.55;;;861.17;;
13368;SDS011;6753;52.520;13.450;2023-04-24T00:20:57;973.00;;;861.10;;
13368;SDS011;6753;52.520;13.450;2023-04-24T00:21:08;970.70;;;860.08;;
13368;SDS011;6753;52.520;13.450;2023-04-24T00:21:19;971.73;;;858.80;;
13368;SDS011;6753;52.520;13.450;2023-04-24T00:21:30;969.83;;;858.55;;
13368;SDS011;6753;52.520;13.450;2023-04-24T00:21:42;971.85;;;858.50;;
13368;SDS011;6753;52.520;13.450;2023-04-24T00:21:53;968.40;;;857.93;;
13368;SDS011;6753;52.520;13.450;2023-04-24T00:22:04;969.20;;;858.55;;
13368;SDS011;6753;52.520;13.450;2023-04-24T00:22:15;967.67;;;858.17;;
13368;SDS011;6753;52.520;13.450;2023-04-24T00:22:26;964.58;;;857.22;;
13368;SDS011;6753;52.520;13.450;2023-04-24T00:22:38;963.43;;;855.90;;
13368;SDS011;6753;52.520;13.450;2023-04-24T00:22:49;960.30;;;853.50;;
13368;SDS011;6753;52.520;13.450;2023-04-24T00:23:00;960.73;;;853.60;;
13368;SDS011;6753;52.520;13.450;2023-04-24T00:23:11;960.85;;;853.88;;
13368;SDS011;6753;52.520;13.450;2023-04-24T00:23:22;962.85;;;853.92;;
13368;SDS011;6753;52.520;13.450;2023-04-24T00:23:33;963.13;;;852.70;;
13368;SDS011;6753;52.520;13.450;2023-04-24T00:23:44;963.65;;;853.92;;
13368;SDS011;6753;52.520;13.450;2023-04-24T00:23:55;962.67;;;853.73;;
13368;SDS011;6753;52.520;13.450;2023-04-24T00:24:06;964.28;;;853.25;;
13368;SDS011;6753;52.520;13.450;2023-04-24T00:24:19;963.67;;;854.47;;
13368;SDS011;6753;52.520;13.450;2023-04-24T00:24:30;965.40;;;854.20;;
13368;SDS011;6753;52.520;13.450;2023-04-24T00:24:41;965.42;;;855.40;;
13368;SDS011;6753;52.520;13.450;2023-04-24T00:24:51;965.33;;;855.00;;
13368;SDS011;6753;52.520;13.450;2023-04-24T00:25:02;963.35;;;854.13;;
13368;SDS011;6753;52.520;13.450;2023-04-24T00:25:13;960.88;;;852.00;;
13368;SDS011;6753;52.520;13.450;2023-04-24T00:25:25;959.60;;;852.50;;
13368;SDS011;6753;52.520;13.450;2023-04-24T00:25:36;959.55;;;852.85;;
13368;SDS011;6753;52.520;13.450;2023-04-24T00:25:46;958.10;;;851.77;;
13368;SDS011;6753;52.520;13.450;2023-04-24T00:25:57;958.53;;;852.13;;
13368;SDS011;6753;52.520;13.450;2023-04-24T00:26:08;958.30;;;852.05;;
13368;SDS011;6753;52.520;13.450;2023-04-24T00:26:19;959.13;;;852.65;;
13368;SDS011;6753;52.520;13.450;2023-04-24T00:26:30;959.63;;;851.63;;
13368;SDS011;6753;52.520;13.450;2023-04-24T00:26:40;958.63;;;850.65;;
13368;SDS011;6753;52.520;13.450;2023-04-24T00:26:52;962.55;;;850.85;;
13368;SDS011;6753;52.520;13.450;2023-04-24T00:27:03;963.25;;;851.95;;
13368;SDS011;6753;52.520;13.450;2023-04-24T00:27:13;962.20;;;852.40;;
13368;SDS011;6753;52.520;13.450;2023-04-24T00:27:24;962.47;;;851.50;;
13368;SDS011;6753;52.520;13.450;2023-04-24T00:27:35;961.20;;;851.97;;
13368;SDS011;6753;52.520;13.450;2023-04-24T00:27:47;959.35;;;851.45;;
13368;SDS011;6753;52.520;13.450;2023-04-24T00:27:57;957.08;;;850.97;;
13368;SDS011;6753;52.520;13.450;2023-04-24T00:28:08;957.10;;;850.85;;
13368;SDS011;6753;52.520;13.450;2023-04-24T00:28:19;957.10;;;850.70;;
13368;SDS011;6753;52.520;13.450;2023-04-24T00:28:30;958.27;;;851.43;;
13368;SDS011;6753;52.520;13.450;2023-04-24T00:28:41;961.30;;;854.00;;
13368;SDS011;6753;52.520;13.450;2023-04-24T00:28:52;965.17;;;855.25;;
13368;SDS011;6753;52.520;13.450;2023-04-24T00:29:03;965.20;;;855.20;;
13368;SDS011;6753;52.520;13.450;2023-04-24T00:29:15;964.38;;;855.38;;
13368;SDS011;6753;52.520;13.450;2023-04-24T00:29:26;963.55;;;855.22;;
13368;SDS011;6753;52.520;13.450;2023-04-24T00:29:36;959.92;;;853.63;;
13368;SDS011;6753;52.520;13.450;2023-04-24T00:29:50;958.20;;;851.80;;
13368;SDS011;6753;52.520;13.450;2023-04-24T00:30:01;958.28;;;851.95;;
13368;SDS011;6753;52.520;13.450;2023-04-24T00:30:12;959.40;;;852.67;;
13368;SDS011;6753;52.520;13.450;2023-04-24T00:30:23;961.03;;;853.40;;
13368;SDS011;6753;52.520;13.450;2023-04-24T00:30:35;964.63;;;854.50;;
13368;SDS011;6753;52.520;13.450;2023-04-24T00:30:46;963.70;;;856.47;;
13368;SDS011;6753;52.520;13.450;2023-04-24T00:30:56;963.40;;;856.45;;
13368;SDS011;6753;52.520;13.450;2023-04-24T00:31:07;962.58;;;855.80;;
13368;SDS011;6753;52.520;13.450;2023-04-24T00:31:18;960.78;;;854.25;;
13368;SDS011;6753;52.520;13.450;2023-04-24T00:31:29;961.80;;;855.37;;
13368;SDS011;6753;52.520;13.450;2023-04-24T00:31:40;960.85;;;854.58;;
13368;SDS011;6753;52.520;13.450;2023-04-24T00:31:51;958.33;;;852.33;;
13368;SDS011;6753;52.520;13.450;2023-04-24T00:32:02;958.90;;;852.63;;
13368;SDS011;6753;52.520;13.450;2023-04-24T00:32:13;959.63;;;853.33;;
13368;SDS011;6753;52.520;13.450;2023-04-24T00:32:24;959.70;;;853.40;;
13368;SDS011;6753;52.520;13.450;2023-04-24T00:32:35;957.90;;;851.60;;
13368;SDS011;6753;52.520;13.450;2023-04-24T00:32:46;958.80;;;852.55;;
13368;SDS011;6753;52.520;13.450;2023-04-24T00:32:56;959.22;;;853.10;;
13368;SDS011;6753;52.520;13.450;2023-04-24T00:33:08;958.13;;;852.03;;
13368;SDS011;6753;52.520;13.450;2023-04-24T00:33:19;958.03;;;851.92;;
13368;SDS011;6753;52.520;13.450;2023-04-24T00:33:30;957.08;;;851.13;;
13368;SDS011;6753;52.520;13.450;2023-04-24T00:33:41;957.97;;;852.22;;
13368;SDS011;6753;52.520;13.450;2023-04-24T00:33:52;958.58;;;852.47;;
13368;SDS011;6753;52.520;13.450;2023-04-24T00:34:03;957.78;;;851.88;;
13368;SDS011;6753;52.520;13.450;2023-04-24T00:34:14;957.50;;;851.88;;
13368;SDS011;6753;52.520;13.450;2023-04-24T00:34:26;956.78;;;851.22;;
13368;SDS011;6753;52.520;13.450;2023-04-24T00:34:37;956.78;;;851.20;;
13368;SDS011;6753;52.520;13.450;2023-04-24T00:34:50;955.30;;;849.78;;
13368;SDS011;6753;52.520;13.450;2023-04-24T00:35:01;953.85;;;848.67;;
13368;SDS011;6753;52.520;13.450;2023-04-24T00:35:12;951.83;;;846.88;;
13368;SDS011;6753;52.520;13.450;2023-04-24T00:35:23;951.45;;;846.80;;
13368;SDS011;6753;52.520;13.450;2023-04-24T00:35:33;950.27;;;845.83;;
13368;SDS011;6753;52.520;13.450;2023-04-24T00:35:45;951.65;;;847.03;;
13368;SDS011;6753;52.520;13.450;2023-04-24T00:35:56;953.85;;;848.97;;
13368;SDS011;6753;52.520;13.450;2023-04-24T00:36:07;954.55;;;849.55;;
13368;SDS011;6753;52.520;13.450;2023-04-24T00:36:18;955.43;;;850.13;;
13368;SDS011;6753;52.520;13.450;2023-04-24T00:36:30;955.42;;;850.03;;
13368;SDS011;6753;52.520;13.450;2023-04-24T00:36:42;954.13;;;849.13;;
13368;SDS011;6753;52.520;13.450;2023-04-24T00:36:52;952.63;;;847.70;;
13368;SDS011;6753;52.520;13.450;2023-04-24T00:37:03;947.88;;;843.42;;
13368;SDS011;6753;52.520;13.450;2023-04-24T00:37:14;945.38;;;841.17;;
13368;SDS011;6753;52.520;13.450;2023-04-24T00:37:25;944.28;;;840.28;;
13368;SDS011;6753;52.520;13.450;2023-04-24T00:37:36;943.05;;;838.95;;
13368;SDS011;6753;52.520;13.450;2023-04-24T00:37:47;941.38;;;837.17;;
13368;SDS011;6753;52.520;13.450;2023-04-24T00:37:58;944.15;;;839.80;;
13368;SDS011;6753;52.520;13.450;2023-04-24T00:38:08;944.40;;;840.10;;
13368;SDS011;6753;52.520;13.450;2023-04-24T00:38:19;943.25;;;838.95;;
13368;SDS011;6753;52.520;13.450;2023-04-24T00:38:30;943.78;;;839.58;;
13368;SDS011;6753;52.520;13.450;2023-04-24T00:38:41;941.53;;;837.67;;
13368;SDS011;6753;52.520;13.450;2023-04-24T00:38:51;940.63;;;836.97;;
13368;SDS011;6753;52.520;13.450;2023-04-24T00:39:03;939.33;;;835.90;;
13368;SDS011;6753;52.520;13.450;2023-04-24T00:39:14;939.43;;;836.00;;
13368;SDS011;6753;52.520;13.450;2023-04-24T00:39:25;939.28;;;835.88;;
13368;SDS011;6753;52.520;13.450;2023-04-24T00:39:36;938.00;;;834.67;;
13368;SDS011;6753;52.520;13.450;2023-04-24T00:39:47;939.33;;;835.83;;
13368;SDS011;6753;52.520;13.450;2023-04-24T00:39:57;938.58;;;835.15;;
13368;SDS011;6753;52.520;13.450;2023-04-24T00:40:08;938.50;;;835.00;;
13368;SDS011;6753;52.520;13.450;2023-04-24T00:40:21;938.63;;;835.10;;
13368;SDS011;6753;52.520;13.450;2023-04-24T00:40:32;937.30;;;834.10;;
13368;SDS011;6753;52.520;13.450;2023-04-24T00:40:43;935.70;;;832.83;;
13368;SDS011;6753;52.520;13.450;2023-04-24T00:40:53;934.83;;;832.13;;
13368;SDS011;6753;52.520;13.450;2023-04-24T00:41:04;934.55;;;831.95;;
13368;SDS011;6753;52.520;13.450;2023-04-24T00:41:16;933.45;;;830.95;;
13368;SDS011;6753;52.520;13.450;2023-04-24T00:41:26;932.45;;;830.13;;
13368;SDS011;6753;52.520;13.450;2023-04-24T00:41:37;931.45;;;829.08;;
13368;SDS011;6753;52.520;13.450;2023-04-24T00:41:48;931.37;;;829.03;;
13368;SDS011;6753;52.520;13.450;2023-04-24T00:42:00;928.95;;;826.72;;
13368;SDS011;6753;52.520;13.450;2023-04-24T00:42:11;928.08;;;825.67;;
13368;SDS011;6753;52.520;13.450;2023-04-24T00:42:22;929.55;;;826.80;;
13368;SDS011;6753;52.520;13.450;2023-04-24T00:42:33;928.55;;;825.97;;
13368;SDS011;6753;52.520;13.450;2023-04-24T00:42:44;928.28;;;825.95;;
13368;SDS011;6753;52.520;13.450;2023-04-24T00:42:55;927.58;;;825.47;;
13368;SDS011;6753;52.520;13.450;2023-04-24T00:43:06;929.20;;;827.20;;
13368;SDS011;6753;52.520;13.450;2023-04-24T00:43:17;929.40;;;827.72;;
13368;SDS011;6753;52.520;13.450;2023-04-24T00:43:29;929.35;;;827.95;;
13368;SDS011;6753;52.520;13.450;2023-04-24T00:43:40;927.45;;;826.38;;
13368;SDS011;6753;52.520;13.450;2023-04-24T00:43:51;927.08;;;825.83;;
13368;SDS011;6753;52.520;13.450;2023-04-24T00:44:02;926.25;;;825.05;;
13368;SDS011;6753;52.520;13.450;2023-04-24T00:44:17;923.15;;;822.28;;
13368;SDS011;6753;52.520;13.450;2023-04-24T00:44:28;923.08;;;822.22;;
13368;SDS011;6753;52.520;13.450;2023-04-24T00:44:39;923.92;;;822.92;;
13368;SDS011;6753;52.520;13.450;2023-04-24T00:44:49;924.33;;;823.35;;
13368;SDS011;6753;52.520;13.450;2023-04-24T00:45:01;923.60;;;822.70;;
13368;SDS011;6753;52.520;13.450;2023-04-24T00:45:13;925.72;;;824.63;;
13368;SDS011;6753;52.520;13.450;2023-04-24T00:45:24;925.58;;;824.45;;
13368;SDS011;6753;52.520;13.450;2023-04-24T00:45:34;924.80;;;823.40;;
13368;SDS011;6753;52.520;13.450;2023-04-24T00:45:46;924.28;;;822.88;;
13368;SDS011;6753;52.520;13.450;2023-04-24T00:45:56;924.13;;;822.93;;
13368;SDS011;6753;52.520;13.450;2023-04-24T00:46:09;923.65;;;822.47;;
13368;SDS011;6753;52.520;13.450;2023-04-24T00:46:21;920.72;;;819.83;;
13368;SDS011;6753;52.520;13.450;2023-04-24T00:46:32;920.97;;;820.08;;
13368;SDS011;6753;52.520;13.450;2023-04-24T00:46:43;919.70;;;819.13;;
13368;SDS011;6753;52.520;13.450;2023-04-24T00:46:53;917.97;;;817.37;;
13368;SDS011;6753;52.520;13.450;2023-04-24T00:47:08;917.70;;;817.08;;
13368;SDS011;6753;52.520;13.450;2023-04-24T00:47:19;918.63;;;817.78;;
13368;SDS011;6753;52.520;13.450;2023-04-24T00:47:32;916.65;;;816.28;;
13368;SDS011;6753;52.520;13.450;2023-04-24T00:47:43;915.92;;;815.63;;
13368;SDS011;6753;52.520;13.450;2023-04-24T00:47:56;915.58;;;815.47;;
13368;SDS011;6753;52.520;13.450;2023-04-24T00:48:07;914.30;;;814.30;;
13368;SDS011;6753;52.520;13.450;2023-04-24T00:48:18;912.60;;;812.90;;
13368;SDS011;6753;52.520;13.450;2023-04-24T00:48:30;912.92;;;813.10;;
13368;SDS011;6753;52.520;13.450;2023-04-24T00:48:41;912.30;;;812.58;;
13368;SDS011;6753;52.520;13.450;2023-04-24T00:48:53;912.92;;;813.13;;
13368;SDS011;6753;52.520;13.450;2023-04-24T00:49:05;911.38;;;812.05;;
13368;SDS011;6753;52.520;13.450;2023-04-24T00:49:16;909.42;;;810.22;;
13368;SDS011;6753;52.520;13.450;2023-04-24T00:49:28;909.67;;;810.60;;
13368;SDS011;6753;52.520;13.450;2023-04-24T00:49:39;909.45;;;810.28;;
13368;SDS011;6753;52.520;13.450;2023-04-24T00:49:50;909.30;;;810.08;;
13368;SDS011;6753;52.520;13.450;2023-04-24T00:50:01;910.27;;;810.77;;
13368;SDS011;6753;52.520;13.450;2023-04-24T00:50:13;911.92;;;812.20;;
13368;SDS011;6753;52.520;13.450;2023-04-24T00:50:25;909.60;;;810.13;;
13368;SDS011;6753;52.520;13.450;2023-04-24T00:50:36;909.75;;;810.25;;
13368;SDS011;6753;52.520;13.450;2023-04-24T00:50:49;909.42;;;810.03;;
13368;SDS011;6753;52.520;13.450;2023-04-24T00:51:00;908.60;;;809.42;;
13368;SDS011;6753;52.520;13.450;2023-04-24T00:51:11;906.97;;;807.95;;
13368;SDS011;6753;52.520;13.450;2023-04-24T00:51:22;907.08;;;808.13;;
13368;SDS011;6753;52.520;13.450;2023-04-24T00:51:34;909.30;;;810.25;;
13368;SDS011;6753;52.520;13.450;2023-04-24T00:51:46;909.00;;;810.25;;
13368;SDS011;6753;52.520;13.450;2023-04-24T00:51:57;907.97;;;809.30;;
13368;SDS011;6753;52.520;13.450;2023-04-24T00:52:09;907.72;;;809.13;;
13368;SDS011;6753;52.520;13.450;2023-04-24T00:52:20;908.15;;;809.53;;
13368;SDS011;6753;52.520;13.450;2023-04-24T00:52:34;907.60;;;808.95;;
13368;SDS011;6753;52.520;13.450;2023-04-24T00:52:44;907.28;;;808.30;;
13368;SDS011;6753;52.520;13.450;2023-04-24T00:52:55;907.38;;;808.47;;
13368;SDS011;6753;52.520;13.450;2023-04-24T00:53:06;908.00;;;809.30;;
13368;SDS011;6753;52.520;13.450;2023-04-24T00:53:17;908.63;;;809.97;;
13368;SDS011;6753;52.520;13.450;2023-04-24T00:53:27;908.13;;;809.42;;
13368;SDS011;6753;52.520;13.450;2023-04-24T00:53:38;908.17;;;809.47;;
13368;SDS011;6753;52.520;13.450;2023-04-24T00:53:49;906.90;;;808.38;;
13368;SDS011;6753;52.520;13.450;2023-04-24T00:54:01;907.45;;;808.47;;
13368;SDS011;6753;52.520;13.450;2023-04-24T00:54:12;906.42;;;807.40;;
13368;SDS011;6753;52.520;13.450;2023-04-24T00:54:23;904.07;;;805.17;;
13368;SDS011;6753;52.520;13.450;2023-04-24T00:54:34;902.03;;;803.25;;
13368;SDS011;6753;52.520;13.450;2023-04-24T00:54:45;901.65;;;802.78;;
13368;SDS011;6753;52.520;13.450;2023-04-24T00:54:56;899.33;;;800.78;;
13368;SDS011;6753;52.520;13.450;2023-04-24T00:55:07;897.42;;;799.08;;
13368;SDS011;6753;52.520;13.450;2023-04-24T00:55:18;898.65;;;800.05;;
13368;SDS011;6753;52.520;13.450;2023-04-24T00:55:29;900.30;;;801.80;;
13368;SDS011;6753;52.520;13.450;2023-04-24T00:55:41;899.85;;;801.53;;
13368;SDS011;6753;52.520;13.450;2023-04-24T00:55:52;901.13;;;802.85;;
13368;SDS011;6753;52.520;13.450;2023-04-24T00:56:03;900.90;;;802.67;;
13368;SDS011;6753;52.520;13.450;2023-04-24T00:56:15;901.33;;;803.22;;
13368;SDS011;6753;52.520;13.450;2023-04-24T00:56:26;900.50;;;802.47;;
13368;SDS011;6753;52.520;13.450;2023-04-24T00:56:37;899.45;;;801.63;;
13368;SDS011;6753;52.520;13.450;2023-04-24T00:56:48;899.90;;;802.10;;
13368;SDS011;6753;52.520;13.450;2023-04-24T00:56:59;900.05;;;802.58;;
13368;SDS011;6753;52.520;13.450;2023-04-24T00:57:11;898.47;;;801.03;;
13368;SDS011;6753;52.520;13.450;2023-04-24T00:57:23;898.58;;;801.45;;
13368;SDS011;6753;52.520;13.450;2023-04-24T00:57:35;897.60;;;800.53;;
13368;SDS011;6753;52.520;13.450;2023-04-24T00:57:46;896.17;;;799.17;;
13368;SDS011;6753;52.520;13.450;2023-04-24T00:57:58;895.47;;;798.38;;
13368;SDS011;6753;52.520;13.450;2023-04-24T00:58:09;895.53;;;798.45;;
13368;SDS011;6753;52.520;13.450;2023-04-24T00:58:21;895.38;;;798.03;;
13368;SDS011;6753;52.520;13.450;2023-04-24T00:58:33;895.47;;;798.30;;
13368;SDS011;6753;52.520;13.450;2023-04-24T00:58:44;896.53;;;799.13;;
13368;SDS011;6753;52.520;13.450;2023-04-24T00:58:55;896.08;;;798.92;;
13368;SDS011;6753;52.520;13.450;2023-04-24T00:59:06;896.53;;;799.53;;
13368;SDS011;6753;52.520;13.450;2023-04-24T00:59:18;896.50;;;799.63;;
13368;SDS011;6753;52.520;13.450;2023-04-24T00:59:29;896.50;;;799.40;;
13368;SDS011;6753;52.520;13.450;2023-04-24T00:59:40;896.03;;;799.17;;
13368;SDS011;6753;52.520;13.450;2023-04-24T00:59:52;894.65;;;797.92;;
13368;SDS011;6753;52.520;13.450;2023-04-24T01:00:05;895.35;;;798.25;;
13368;SDS011;6753;52.520;13.450;2023-04-24T01:00:20;893.75;;;797.05;;
13368;SDS011;6753;52.520;13.450;2023-04-24T01:00:31;891.60;;;795.17;;
13368;SDS011;6753;52.520;13.450;2023-04-24T01:00:42;891.45;;;794.95;;
13368;SDS011;6753;52.520;13.450;2023-04-24T01:00:54;891.28;;;794.78;;
13368;SDS011;6753;52.520;13.450;2023-04-24T01:01:05;889.97;;;793.75;;
13368;SDS011;6753;52.520;13.450;2023-04-24T01:01:16;890.35;;;793.85;;
13368;SDS011;6753;52.520;13.450;2023-04-24T01:01:30;890.25;;;793.90;;
13368;SDS011;6753;52.520;13.450;2023-04-24T01:01:42;889.53;;;793.42;;
13368;SDS011;6753;52.520;13.450;2023-04-24T01:01:55;889.45;;;793.33;;
13368;SDS011;6753;52.520;13.450;2023-04-24T01:02:06;888.75;;;792.67;;
13368;SDS011;6753;52.520;13.450;2023-04-24T01:02:17;886.47;;;790.80;;
13368;SDS011;6753;52.520;13.450;2023-04-24T01:02:28;885.80;;;790.05;;
13368;SDS011;6753;52.520;13.450;2023-04-24T01:02:39;886.53;;;790.53;;
13368;SDS011;6753;52.520;13.450;2023-04-24T01:02:53;884.50;;;788.85;;
13368;SDS011;6753;52.520;13.450;2023-04-24T01:03:05;884.80;;;789.20;;
13368;SDS011;6753;52.520;13.450;2023-04-24T01:03:17;886.33;;;790.53;;
13368;SDS011;6753;52.520;13.450;2023-04-24T01:03:29;886.33;;;790.47;;
13368;SDS011;6753;52.520;13.450;2023-04-24T01:03:41;884.80;;;789.15;;
13368;SDS011;6753;52.520;13.450;2023-04-24T01:03:52;884.53;;;788.95;;